createdAt,value
2023-02-11T00:01:08.121Z,99249.22
2023-02-11T00:03:35.461Z,99249.47
2023-02-11T00:06:05.078Z,99255.63
2023-02-11T00:08:31.928Z,99254.78
2023-02-11T00:10:58.693Z,99254.28
2023-02-11T00:13:26.240Z,99259.59
2023-02-11T00:15:54.807Z,99258.03
2023-02-11T00:18:21.481Z,99255.44
2023-02-11T00:20:48.211Z,99250.47
2023-02-11T00:23:15.815Z,99250.78
2023-02-11T00:25:45.041Z,99244.91
2023-02-11T00:28:12.725Z,99246.72
2023-02-11T00:30:39.807Z,99245.88
2023-02-11T00:33:06.449Z,99241.59
2023-02-11T00:35:33.093Z,99237.50
2023-02-11T00:37:59.919Z,99237.72
2023-02-11T00:40:26.675Z,99239.81
2023-02-11T00:42:53.365Z,99240.75
2023-02-11T00:45:21.367Z,99235.53
2023-02-11T00:47:48.296Z,99237.31
2023-02-11T00:50:15.004Z,99224.22
2023-02-11T00:52:41.939Z,99227.78
2023-02-11T00:55:08.914Z,99228.69
2023-02-11T00:57:35.604Z,99222.75
2023-02-11T01:00:02.867Z,99218.44
2023-02-11T01:02:29.490Z,99217.50
2023-02-11T01:04:56.426Z,99202.97
2023-02-11T01:07:23.554Z,99209.03
2023-02-11T01:09:50.193Z,99210.59
2023-02-11T01:12:16.829Z,99205.47
2023-02-11T01:14:43.831Z,99210.91
2023-02-11T01:17:10.481Z,99203.38
2023-02-11T01:19:38.273Z,99191.50
2023-02-11T01:22:05.690Z,99197.50
2023-02-11T01:24:32.818Z,99195.84
2023-02-11T01:26:59.409Z,99199.38
2023-02-11T01:29:26.462Z,99204.72
2023-02-11T01:31:53.452Z,99207.53
2023-02-11T01:34:20.105Z,99202.41
2023-02-11T01:36:46.998Z,99211.91
2023-02-11T01:39:13.730Z,99205.03
2023-02-11T01:41:40.364Z,99196.41
2023-02-11T01:44:34.471Z,99195.78
2023-02-11T01:47:04.766Z,99188.25
2023-02-11T01:49:38.432Z,99186.47
2023-02-11T01:52:07.941Z,99188.44
2023-02-11T01:55:19.540Z,99184.47
2023-02-11T01:57:51.403Z,99191.88
2023-02-11T02:00:30.513Z,99179.00
2023-02-11T02:03:08.322Z,99182.84
2023-02-11T02:06:00.345Z,99168.41
2023-02-11T02:08:42.367Z,99163.28
2023-02-11T02:11:09.791Z,99159.09
2023-02-11T02:13:36.828Z,99155.91
2023-02-11T02:16:12.185Z,99153.63
2023-02-11T02:19:14.286Z,99154.25
2023-02-11T02:22:19.890Z,99152.41
2023-02-11T02:25:07.549Z,99151.34
2023-02-11T02:28:13.322Z,99146.75
2023-02-11T02:30:58.331Z,99144.06
2023-02-11T02:33:41.625Z,99150.13
2023-02-11T02:36:18.377Z,99143.94
2023-02-11T02:38:57.003Z,99148.25
2023-02-11T02:41:28.614Z,99144.69
2023-02-11T02:43:55.792Z,99148.25
2023-02-11T02:46:28.427Z,99132.75
2023-02-11T02:48:56.016Z,99139.84
2023-02-11T02:51:55.248Z,99122.91
2023-02-11T02:54:43.780Z,99119.88
2023-02-11T02:57:33.226Z,99126.06
2023-02-11T03:00:27.451Z,99126.47
2023-02-11T03:02:57.905Z,99121.63
2023-02-11T03:05:30.567Z,99117.44
2023-02-11T03:08:09.363Z,99119.50
2023-02-11T03:10:40.371Z,99119.94
2023-02-11T03:13:13.073Z,99124.09
2023-02-11T03:15:44.407Z,99121.59
2023-02-11T03:18:16.389Z,99117.41
2023-02-11T03:20:47.105Z,99110.88
2023-02-11T03:23:18.256Z,99117.78
2023-02-11T03:25:50.766Z,99110.06
2023-02-11T03:28:32.645Z,99114.13
2023-02-11T03:31:20.671Z,99111.91
2023-02-11T03:34:19.415Z,99125.53
2023-02-11T03:37:10.457Z,99129.16
2023-02-11T03:39:41.712Z,99125.72
2023-02-11T03:42:11.162Z,99121.63
2023-02-11T03:44:44.050Z,99126.03
2023-02-11T03:47:15.538Z,99127.81
2023-02-11T03:49:45.749Z,99125.28
2023-02-11T03:52:13.991Z,99125.28
2023-02-11T03:54:43.440Z,99131.44
2023-02-11T03:57:10.354Z,99142.09
2023-02-11T03:59:54.791Z,99138.75
2023-02-11T04:02:24.354Z,99142.28
2023-02-11T04:04:51.129Z,99141.56
2023-02-11T04:07:18.237Z,99136.50
2023-02-11T04:09:45.167Z,99131.19
2023-02-11T04:12:14.223Z,99132.44
2023-02-11T04:14:40.804Z,99131.47
2023-02-11T04:17:07.789Z,99118.44
2023-02-11T04:19:37.112Z,99121.03
2023-02-11T04:22:09.132Z,99110.31
2023-02-11T04:24:35.942Z,99095.41
2023-02-11T04:27:02.732Z,99108.84
2023-02-11T04:29:29.652Z,99111.38
2023-02-11T04:31:56.440Z,99109.91
2023-02-11T04:34:24.541Z,99097.75
2023-02-11T04:36:51.799Z,99102.06
2023-02-11T04:39:18.668Z,99105.72
2023-02-11T04:41:45.338Z,99098.84
2023-02-11T04:44:12.514Z,99097.25
2023-02-11T04:46:39.288Z,99098.19
2023-02-11T04:49:05.940Z,99101.72
2023-02-11T04:51:32.738Z,99087.38
2023-02-11T04:53:59.483Z,99092.41
2023-02-11T04:56:26.068Z,99088.88
2023-02-11T04:58:52.949Z,99089.16
2023-02-11T05:01:19.773Z,99087.38
2023-02-11T05:03:46.461Z,99082.91
2023-02-11T05:06:13.265Z,99079.34
2023-02-11T05:08:40.880Z,99073.31
2023-02-11T05:11:14.632Z,99080.00
2023-02-11T05:13:41.250Z,99078.16
2023-02-11T05:16:08.106Z,99086.06
2023-02-11T05:18:37.579Z,99090.38
2023-02-11T05:21:16.323Z,99084.97
2023-02-11T05:23:43.635Z,99090.06
2023-02-11T05:26:10.909Z,99086.06
2023-02-11T05:28:38.196Z,99087.84
2023-02-11T05:31:09.921Z,99085.53
2023-02-11T05:33:36.642Z,99090.63
2023-02-11T05:36:06.869Z,99090.75
2023-02-11T05:38:33.678Z,99091.69
2023-02-11T05:41:00.963Z,99098.69
2023-02-11T05:43:27.746Z,99093.53
2023-02-11T05:45:55.101Z,99091.69
2023-02-11T05:48:21.769Z,99091.88
2023-02-11T05:50:48.719Z,99093.34
2023-02-11T05:53:15.883Z,99083.94
2023-02-11T05:55:42.757Z,99088.13
2023-02-11T05:58:10.139Z,99086.34
2023-02-11T06:00:37.074Z,99088.13
2023-02-11T06:03:04.623Z,99084.56
2023-02-11T06:05:31.901Z,99086.91
2023-02-11T06:07:58.799Z,99091.84
2023-02-11T06:10:25.914Z,99095.16
2023-02-11T06:12:52.748Z,99093.19
2023-02-11T06:15:19.615Z,99088.59
2023-02-11T06:17:46.257Z,99082.34
2023-02-11T06:20:12.997Z,99083.00
2023-02-11T06:22:40.016Z,99086.16
2023-02-11T06:25:07.025Z,99083.53
2023-02-11T06:27:33.948Z,99075.44
2023-02-11T06:30:00.609Z,99076.97
2023-02-11T06:32:43.930Z,99072.50
2023-02-11T06:35:12.759Z,99074.94
2023-02-11T06:37:40.640Z,99080.78
2023-02-11T06:40:07.509Z,99085.72
2023-02-11T06:42:36.331Z,99087.06
2023-02-11T06:45:06.172Z,99085.09
2023-02-11T06:47:33.014Z,99089.94
2023-02-11T06:50:00.328Z,99076.88
2023-02-11T06:52:26.901Z,99080.75
2023-02-11T06:54:53.526Z,99089.75
2023-02-11T06:57:20.576Z,99078.16
2023-02-11T06:59:47.198Z,99087.06
2023-02-11T07:02:13.904Z,99091.78
2023-02-11T07:04:40.957Z,99074.94
2023-02-11T07:07:07.719Z,99082.25
2023-02-11T07:09:34.337Z,99081.78
2023-02-11T07:12:01.152Z,99073.06
2023-02-11T07:14:27.760Z,99067.09
2023-02-11T07:16:54.410Z,99071.81
2023-02-11T07:19:21.211Z,99072.97
2023-02-11T07:21:48.786Z,99063.75
2023-02-11T07:24:15.486Z,99065.22
2023-02-11T07:26:42.576Z,99049.81
2023-02-11T07:29:10.000Z,99050.28
2023-02-11T07:31:36.753Z,99048.06
2023-02-11T07:34:04.215Z,99052.88
2023-02-11T07:36:32.308Z,99047.09
2023-02-11T07:39:00.131Z,99051.78
2023-02-11T07:41:27.899Z,99048.75
2023-02-11T07:43:54.801Z,99047.22
2023-02-11T07:46:26.749Z,99057.88
2023-02-11T07:48:54.234Z,99050.19
2023-02-11T07:51:27.120Z,99050.22
2023-02-11T07:53:55.885Z,99045.16
2023-02-11T07:56:23.425Z,99038.16
2023-02-11T07:58:50.706Z,99039.16
2023-02-11T08:01:25.455Z,99041.69
2023-02-11T08:03:52.728Z,99039.81
2023-02-11T08:06:21.180Z,99038.78
2023-02-11T08:08:48.270Z,99037.81
2023-02-11T08:11:22.982Z,99045.34
2023-02-11T08:13:50.404Z,99043.88
2023-02-11T08:16:22.973Z,99044.97
2023-02-11T08:18:51.058Z,99038.25
2023-02-11T08:21:18.691Z,99030.56
2023-02-11T08:23:46.225Z,99020.19
2023-02-11T08:26:15.927Z,99024.69
2023-02-11T08:28:44.779Z,99018.97
2023-02-11T08:31:18.097Z,99018.03
2023-02-11T08:33:45.118Z,99029.63
2023-02-11T08:36:17.347Z,99015.88
2023-02-11T08:38:44.803Z,99013.72
2023-02-11T08:41:11.769Z,99009.34
2023-02-11T08:43:42.001Z,99012.34
2023-02-11T08:46:10.122Z,99014.00
2023-02-11T08:48:36.782Z,99009.06
2023-02-11T08:51:13.779Z,99000.19
2023-02-11T08:53:40.636Z,98987.28
2023-02-11T08:56:07.690Z,98985.72
2023-02-11T08:58:34.692Z,98980.72
2023-02-11T09:01:01.315Z,98981.09
2023-02-11T09:03:28.090Z,98992.31
2023-02-11T09:05:55.381Z,98980.44
2023-02-11T09:08:22.031Z,98978.13
2023-02-11T09:10:49.179Z,98992.66
2023-02-11T09:13:17.461Z,98983.78
2023-02-11T09:15:46.963Z,98983.94
2023-02-11T09:18:13.992Z,98985.84
2023-02-11T09:20:40.945Z,98975.03
2023-02-11T09:23:07.729Z,98978.97
2023-02-11T09:25:34.331Z,98982.91
2023-02-11T09:28:01.466Z,98976.69
2023-02-11T09:30:28.253Z,98973.81
2023-02-11T09:32:54.960Z,98968.44
2023-02-11T09:35:21.990Z,98958.41
2023-02-11T09:37:48.698Z,98957.22
2023-02-11T09:40:16.381Z,98950.56
2023-02-11T09:43:09.361Z,98947.16
2023-02-11T09:45:36.181Z,98937.97
2023-02-11T09:48:14.902Z,98931.03
2023-02-11T09:50:46.733Z,98928.75
2023-02-11T09:53:13.456Z,98918.66
2023-02-11T09:55:43.441Z,98923.78
2023-02-11T09:58:21.367Z,98929.44
2023-02-11T10:00:58.718Z,98911.19
2023-02-11T10:04:01.250Z,98912.00
2023-02-11T10:06:49.450Z,98905.19
2023-02-11T10:09:26.016Z,98896.41
2023-02-11T10:12:16.621Z,98888.91
2023-02-11T10:15:13.060Z,98883.75
2023-02-11T10:17:58.465Z,98882.69
2023-02-11T10:20:28.010Z,98890.00
2023-02-11T10:23:38.110Z,98883.50
2023-02-11T10:26:16.196Z,98879.75
2023-02-11T10:28:46.546Z,98873.53
2023-02-11T10:31:19.339Z,98873.97
2023-02-11T10:34:09.283Z,98879.66
2023-02-11T10:36:38.994Z,98867.44
2023-02-11T10:39:19.881Z,98870.03
2023-02-11T10:41:50.916Z,98873.06
2023-02-11T10:44:27.890Z,98873.72
2023-02-11T10:46:56.473Z,98879.50
2023-02-11T10:49:44.358Z,98875.22
2023-02-11T10:52:14.067Z,98868.69
2023-02-11T10:54:40.755Z,98850.91
2023-02-11T10:57:07.964Z,98853.84
2023-02-11T10:59:40.461Z,98850.47
2023-02-11T11:02:34.799Z,98837.25
2023-02-11T11:05:20.177Z,98824.97
2023-02-11T11:08:13.345Z,98812.50
2023-02-11T11:10:44.407Z,98814.44
2023-02-11T11:13:27.083Z,98827.50
2023-02-11T11:16:12.557Z,98809.22
2023-02-11T11:18:41.029Z,98797.81
2023-02-11T11:21:17.167Z,98792.84
2023-02-11T11:23:56.510Z,98790.44
2023-02-11T11:26:26.103Z,98794.13
2023-02-11T11:28:54.872Z,98788.59
2023-02-11T11:31:27.306Z,98793.47
2023-02-11T11:33:58.152Z,98782.63
2023-02-11T11:36:39.877Z,98782.50
2023-02-11T11:39:21.704Z,98774.75
2023-02-11T11:41:59.406Z,98763.78
2023-02-11T11:44:33.547Z,98756.47
2023-02-11T11:47:19.468Z,98749.50
2023-02-11T11:50:10.963Z,98739.34
2023-02-11T11:53:01.697Z,98732.72
2023-02-11T11:55:48.716Z,98733.16
2023-02-11T11:58:19.068Z,98724.47
2023-02-11T12:01:03.910Z,98724.03
2023-02-11T12:03:43.905Z,98719.78
2023-02-11T12:06:32.435Z,98711.75
2023-02-11T12:09:12.599Z,98710.75
2023-02-11T12:12:11.859Z,98701.09
2023-02-11T12:14:49.041Z,98696.38
2023-02-11T12:18:20.635Z,98692.28
2023-02-11T12:21:06.013Z,98692.41
2023-02-11T12:23:47.260Z,98696.78
2023-02-11T12:26:17.114Z,98707.13
2023-02-11T12:29:17.561Z,98694.97
2023-02-11T12:32:08.481Z,98695.75
2023-02-11T12:34:53.743Z,98681.78
2023-02-11T12:37:33.287Z,98683.84
2023-02-11T12:40:25.429Z,98675.78
2023-02-11T12:43:17.988Z,98659.34
2023-02-11T12:46:01.215Z,98661.28
2023-02-11T12:49:02.685Z,98659.50
2023-02-11T12:52:03.617Z,98662.25
2023-02-11T12:54:37.532Z,98659.25
2023-02-11T12:57:11.972Z,98654.47
2023-02-11T12:59:52.114Z,98654.47
2023-02-11T13:02:43.985Z,98648.25
2023-02-11T13:05:28.723Z,98632.22
2023-02-11T13:08:13.460Z,98645.47
2023-02-11T13:10:48.232Z,98650.59
2023-02-11T13:13:33.876Z,98653.66
2023-02-11T13:16:08.197Z,98646.63
2023-02-11T13:18:53.805Z,98650.06
2023-02-11T13:21:35.131Z,98649.13
2023-02-11T13:24:22.403Z,98638.75
2023-02-11T13:27:15.388Z,98636.78
2023-02-11T13:30:14.351Z,98633.22
2023-02-11T13:32:56.313Z,98620.91
2023-02-11T13:35:37.457Z,98603.19
2023-02-11T13:38:24.824Z,98611.25
2023-02-11T13:41:18.160Z,98621.19
2023-02-11T13:43:57.348Z,98612.75
2023-02-11T13:46:27.578Z,98610.50
2023-02-11T13:48:54.931Z,98616.91
2023-02-11T13:51:39.345Z,98616.47
2023-02-11T13:54:08.124Z,98620.91
2023-02-11T13:56:44.226Z,98614.91
2023-02-11T13:59:26.631Z,98620.84
2023-02-11T14:02:12.243Z,98617.34
2023-02-11T14:05:20.345Z,98618.38
2023-02-11T14:08:30.580Z,98618.16
2023-02-11T14:11:02.876Z,98612.16
2023-02-11T14:13:33.489Z,98620.75
2023-02-11T14:16:36.501Z,98618.38
2023-02-11T14:19:05.278Z,98627.22
2023-02-11T14:21:38.134Z,98619.41
2023-02-11T14:24:05.052Z,98614.91
2023-02-11T14:26:50.478Z,98613.69
2023-02-11T14:29:42.079Z,98602.38
2023-02-11T14:32:48.326Z,98590.06
2023-02-11T14:35:18.430Z,98603.06
2023-02-11T14:38:19.558Z,98601.34
2023-02-11T14:40:46.176Z,98588.88
2023-02-11T14:43:29.114Z,98593.31
2023-02-11T14:45:58.472Z,98582.41
2023-02-11T14:48:32.098Z,98582.94
2023-02-11T14:51:20.947Z,98578.84
2023-02-11T14:53:51.458Z,98585.50
2023-02-11T14:56:26.395Z,98586.91
2023-02-11T14:58:54.619Z,98588.94
2023-02-11T15:01:36.478Z,98576.66
2023-02-11T15:04:05.759Z,98586.09
2023-02-11T15:06:41.250Z,98583.25
2023-02-11T15:09:41.967Z,98572.78
2023-02-11T15:12:23.660Z,98574.81
2023-02-11T15:14:56.767Z,98567.34
2023-02-11T15:17:27.366Z,98565.72
2023-02-11T15:19:57.126Z,98571.84
2023-02-11T15:22:33.319Z,98574.34
2023-02-11T15:25:11.017Z,98567.75
2023-02-11T15:27:43.296Z,98572.06
2023-02-11T15:30:22.035Z,98570.41
2023-02-11T15:32:58.314Z,98579.75
2023-02-11T15:35:28.662Z,98579.13
2023-02-11T15:37:57.526Z,98579.34
2023-02-11T15:40:32.475Z,98582.41
2023-02-11T15:43:07.647Z,98580.41
2023-02-11T15:45:41.893Z,98579.22
2023-02-11T15:48:31.676Z,98579.03
2023-02-11T15:51:08.611Z,98580.03
2023-02-11T15:53:40.706Z,98568.13
2023-02-11T15:56:13.290Z,98582.41
2023-02-11T15:58:42.426Z,98567.81
2023-02-11T16:01:09.724Z,98570.69
2023-02-11T16:03:36.827Z,98572.69
2023-02-11T16:06:16.961Z,98569.56
2023-02-11T16:08:43.765Z,98563.63
2023-02-11T16:11:26.826Z,98567.66
2023-02-11T16:13:53.955Z,98556.56
2023-02-11T16:16:27.371Z,98561.44
2023-02-11T16:19:04.787Z,98557.75
2023-02-11T16:21:36.341Z,98559.59
2023-02-11T16:24:04.199Z,98568.03
2023-02-11T16:26:43.245Z,98555.91
2023-02-11T16:29:22.041Z,98559.59
2023-02-11T16:31:50.504Z,98562.06
2023-02-11T16:34:21.020Z,98557.59
2023-02-11T16:36:48.996Z,98565.56
2023-02-11T16:39:16.953Z,98559.41
2023-02-11T16:41:44.371Z,98552.44
2023-02-11T16:44:11.358Z,98556.09
2023-02-11T16:46:38.329Z,98555.44
2023-02-11T16:49:17.704Z,98557.94
2023-02-11T16:51:45.423Z,98550.13
2023-02-11T16:54:16.733Z,98549.50
2023-02-11T16:56:44.272Z,98546.03
2023-02-11T16:59:11.617Z,98546.38
2023-02-11T17:01:40.492Z,98555.00
2023-02-11T17:04:11.256Z,98548.22
2023-02-11T17:06:37.941Z,98551.50
2023-02-11T17:09:06.758Z,98528.22
2023-02-11T17:11:33.707Z,98534.63
2023-02-11T17:14:00.320Z,98534.81
2023-02-11T17:16:29.819Z,98524.19
2023-02-11T17:18:56.646Z,98526.03
2023-02-11T17:21:27.585Z,98517.75
2023-02-11T17:23:55.347Z,98514.09
2023-02-11T17:26:22.322Z,98506.66
2023-02-11T17:28:49.084Z,98502.16
2023-02-11T17:31:15.869Z,98498.88
2023-02-11T17:33:43.514Z,98501.53
2023-02-11T17:36:10.658Z,98490.69
2023-02-11T17:38:37.996Z,98481.63
2023-02-11T17:41:05.366Z,98487.75
2023-02-11T17:43:32.376Z,98483.00
2023-02-11T17:45:59.175Z,98480.34
2023-02-11T17:48:26.169Z,98483.00
2023-02-11T17:50:52.839Z,98477.69
2023-02-11T17:53:19.461Z,98468.41
2023-02-11T17:55:46.261Z,98472.53
2023-02-11T17:58:13.034Z,98455.84
2023-02-11T18:00:40.025Z,98460.59
2023-02-11T18:03:06.894Z,98458.59
2023-02-11T18:05:35.487Z,98450.78
2023-02-11T18:08:03.407Z,98449.50
2023-02-11T18:10:30.274Z,98452.38
2023-02-11T18:12:56.937Z,98457.69
2023-02-11T18:15:23.564Z,98464.19
2023-02-11T18:17:50.487Z,98462.09
2023-02-11T18:20:17.400Z,98472.44
2023-02-11T18:22:44.338Z,98466.19
2023-02-11T18:25:14.755Z,98473.34
2023-02-11T18:27:42.033Z,98485.66
2023-02-11T18:30:15.580Z,98486.63
2023-02-11T18:32:42.957Z,98486.84
2023-02-11T18:35:14.784Z,98492.16
2023-02-11T18:37:42.968Z,98486.00
2023-02-11T18:40:11.142Z,98490.31
2023-02-11T18:42:37.855Z,98488.47
2023-02-11T18:45:09.727Z,98490.50
2023-02-11T18:47:37.916Z,98488.00
2023-02-11T18:50:06.609Z,98492.03
2023-02-11T18:52:36.944Z,98492.94
2023-02-11T18:55:04.240Z,98489.66
2023-02-11T18:57:30.942Z,98494.78
2023-02-11T18:59:57.749Z,98503.78
2023-02-11T19:02:25.133Z,98500.44
2023-02-11T19:04:52.339Z,98501.47
2023-02-11T19:07:19.145Z,98500.66
2023-02-11T19:09:45.775Z,98494.88
2023-02-11T19:12:12.566Z,98500.81
2023-02-11T19:14:39.537Z,98495.03
2023-02-11T19:17:07.970Z,98494.22
2023-02-11T19:19:35.704Z,98493.94
2023-02-11T19:22:03.639Z,98499.88
2023-02-11T19:24:30.769Z,98488.97
2023-02-11T19:27:00.167Z,98491.34
2023-02-11T19:29:27.572Z,98487.84
2023-02-11T19:32:06.006Z,98489.69
2023-02-11T19:34:33.730Z,98489.69
2023-02-11T19:37:01.853Z,98484.56
2023-02-11T19:39:28.563Z,98485.72
2023-02-11T19:41:55.393Z,98480.06
2023-02-11T19:44:22.284Z,98480.88
2023-02-11T19:46:50.250Z,98473.28
2023-02-11T19:49:23.199Z,98469.25
2023-02-11T19:51:55.464Z,98463.94
2023-02-11T19:54:22.560Z,98462.94
2023-02-11T19:56:49.397Z,98467.44
2023-02-11T19:59:16.225Z,98467.06
2023-02-11T20:01:43.119Z,98461.13
2023-02-11T20:04:11.361Z,98473.03
2023-02-11T20:06:38.291Z,98460.75
2023-02-11T20:09:07.801Z,98457.09
2023-02-11T20:11:35.764Z,98462.59
2023-02-11T20:14:03.726Z,98463.41
2023-02-11T20:16:47.032Z,98467.91
2023-02-11T20:19:18.485Z,98461.94
2023-02-11T20:21:47.728Z,98457.44
2023-02-11T20:24:18.106Z,98451.50
2023-02-11T20:26:46.966Z,98444.16
2023-02-11T20:29:14.272Z,98442.69
2023-02-11T20:31:41.699Z,98443.53
2023-02-11T20:34:08.938Z,98434.72
2023-02-11T20:36:37.608Z,98425.75
2023-02-11T20:39:06.084Z,98429.03
2023-02-11T20:41:35.779Z,98429.22
2023-02-11T20:44:05.632Z,98427.59
2023-02-11T20:46:33.598Z,98423.91
2023-02-11T20:49:01.370Z,98421.63
2023-02-11T20:51:31.037Z,98420.13
2023-02-11T20:53:58.323Z,98415.38
2023-02-11T20:56:29.099Z,98416.38
2023-02-11T20:58:58.077Z,98419.66
2023-02-11T21:01:45.889Z,98416.03
2023-02-11T21:04:15.383Z,98418.31
2023-02-11T21:06:48.118Z,98418.97
2023-02-11T21:09:21.221Z,98422.78
2023-02-11T21:11:49.562Z,98423.00
2023-02-11T21:14:16.134Z,98423.00
2023-02-11T21:16:43.338Z,98426.66
2023-02-11T21:19:10.173Z,98417.84
2023-02-11T21:21:37.724Z,98420.69
2023-02-11T21:24:05.460Z,98431.31
2023-02-11T21:26:33.775Z,98418.38
2023-02-11T21:29:00.355Z,98421.69
2023-02-11T21:31:30.532Z,98426.66
2023-02-11T21:33:59.668Z,98418.84
2023-02-11T21:36:28.566Z,98411.53
2023-02-11T21:38:55.190Z,98421.16
2023-02-11T21:41:23.331Z,98411.34
2023-02-11T21:43:50.737Z,98410.53
2023-02-11T21:46:18.351Z,98403.47
2023-02-11T21:48:45.817Z,98413.53
2023-02-11T21:51:21.578Z,98408.41
2023-02-11T21:53:48.669Z,98409.59
2023-02-11T21:56:17.500Z,98405.00
2023-02-11T21:58:45.196Z,98409.84
2023-02-11T22:01:17.998Z,98407.38
2023-02-11T22:03:46.196Z,98414.53
2023-02-11T22:06:18.877Z,98415.16
2023-02-11T22:08:48.290Z,98415.81
2023-02-11T22:11:15.526Z,98416.63
2023-02-11T22:13:43.229Z,98408.66
2023-02-11T22:16:13.464Z,98418.94
2023-02-11T22:18:40.802Z,98424.44
2023-02-11T22:21:13.213Z,98421.94
2023-02-11T22:23:40.284Z,98428.72
2023-02-11T22:26:15.801Z,98430.38
2023-02-11T22:28:43.649Z,98433.03
2023-02-11T22:31:14.076Z,98424.25
2023-02-11T22:33:41.520Z,98424.59
2023-02-11T22:36:14.085Z,98424.69
2023-02-11T22:38:40.704Z,98424.22
2023-02-11T22:41:10.012Z,98421.28
2023-02-11T22:43:37.628Z,98417.97
2023-02-11T22:46:06.580Z,98424.28
2023-02-11T22:48:34.636Z,98422.25
2023-02-11T22:51:13.385Z,98416.78
2023-02-11T22:53:40.610Z,98412.28
2023-02-11T22:56:09.820Z,98419.91
2023-02-11T22:58:36.690Z,98415.97
2023-02-11T23:01:04.846Z,98409.53
2023-02-11T23:03:32.037Z,98416.00
2023-02-11T23:06:00.135Z,98424.69
2023-02-11T23:08:28.697Z,98422.56
2023-02-11T23:10:55.600Z,98424.75
2023-02-11T23:13:22.234Z,98420.63
2023-02-11T23:15:49.173Z,98413.38
2023-02-11T23:18:15.777Z,98422.81
2023-02-11T23:20:43.861Z,98424.16
2023-02-11T23:23:10.780Z,98417.56
2023-02-11T23:25:43.520Z,98430.31
2023-02-11T23:28:10.998Z,98429.81
2023-02-11T23:30:38.144Z,98431.81
2023-02-11T23:33:04.770Z,98432.00
2023-02-11T23:35:31.606Z,98438.81
2023-02-11T23:37:58.355Z,98425.53
2023-02-11T23:40:24.956Z,98432.28
2023-02-11T23:42:51.849Z,98422.50
2023-02-11T23:45:18.943Z,98426.75
2023-02-11T23:47:45.832Z,98420.09
2023-02-11T23:50:12.542Z,98414.25
2023-02-11T23:52:39.597Z,98405.00
2023-02-11T23:55:06.905Z,98402.44
2023-02-11T23:57:34.331Z,98408.44
